sensor_id;sensor_type;location;lat;lon;timestamp;temperature;humidity
46562;DHT22;32289;42.688;23.330;2024-01-11T00:00:17;-5.20;99.90
46562;DHT22;32289;42.688;23.330;2024-01-11T00:03:59;-5.30;99.90
46562;DHT22;32289;42.688;23.330;2024-01-11T00:07:40;-5.30;99.90
46562;DHT22;32289;42.688;23.330;2024-01-11T00:11:21;-5.30;99.90
46562;DHT22;32289;42.688;23.330;2024-01-11T00:15:01;-5.30;99.90
46562;DHT22;32289;42.688;23.330;2024-01-11T00:18:42;-5.30;99.90
46562;DHT22;32289;42.688;23.330;2024-01-11T00:22:25;-5.30;99.90
46562;DHT22;32289;42.688;23.330;2024-01-11T00:26:06;-5.30;99.90
46562;DHT22;32289;42.688;23.330;2024-01-11T00:29:46;-5.30;99.90
46562;DHT22;32289;42.688;23.330;2024-01-11T00:33:28;-5.20;99.90
46562;DHT22;32289;42.688;23.330;2024-01-11T00:37:09;-5.20;99.90
46562;DHT22;32289;42.688;23.330;2024-01-11T00:40:49;-5.20;99.90
46562;DHT22;32289;42.688;23.330;2024-01-11T00:44:30;-5.40;99.90
46562;DHT22;32289;42.688;23.330;2024-01-11T00:48:11;-5.40;99.90
46562;DHT22;32289;42.688;23.330;2024-01-11T00:51:52;-5.50;99.90
46562;DHT22;32289;42.688;23.330;2024-01-11T00:55:35;-5.50;99.90
46562;DHT22;32289;42.688;23.330;2024-01-11T00:59:16;-5.50;99.90
46562;DHT22;32289;42.688;23.330;2024-01-11T01:02:57;-5.60;99.90
46562;DHT22;32289;42.688;23.330;2024-01-11T01:06:37;-5.50;99.90
46562;DHT22;32289;42.688;23.330;2024-01-11T01:10:18;-5.50;99.90
46562;DHT22;32289;42.688;23.330;2024-01-11T01:13:59;-5.60;99.90
46562;DHT22;32289;42.688;23.330;2024-01-11T01:17:39;-5.70;99.90
46562;DHT22;32289;42.688;23.330;2024-01-11T01:21:20;-5.60;99.90
46562;DHT22;32289;42.688;23.330;2024-01-11T01:25:01;-5.70;99.90
46562;DHT22;32289;42.688;23.330;2024-01-11T01:28:42;-5.60;99.90
46562;DHT22;32289;42.688;23.330;2024-01-11T01:32:23;-5.70;99.90
46562;DHT22;32289;42.688;23.330;2024-01-11T01:36:04;-5.70;99.90
46562;DHT22;32289;42.688;23.330;2024-01-11T01:39:48;-5.70;99.90
46562;DHT22;32289;42.688;23.330;2024-01-11T01:43:29;-5.70;99.90
46562;DHT22;32289;42.688;23.330;2024-01-11T01:47:10;-5.80;99.90
46562;DHT22;32289;42.688;23.330;2024-01-11T01:50:52;-5.90;99.90
46562;DHT22;32289;42.688;23.330;2024-01-11T01:54:33;-6.00;99.90
46562;DHT22;32289;42.688;23.330;2024-01-11T01:58:15;-6.10;99.90
46562;DHT22;32289;42.688;23.330;2024-01-11T02:01:58;-6.30;99.90
46562;DHT22;32289;42.688;23.330;2024-01-11T02:05:42;-6.40;99.90
46562;DHT22;32289;42.688;23.330;2024-01-11T02:09:25;-6.50;99.90
46562;DHT22;32289;42.688;23.330;2024-01-11T02:13:09;-6.50;99.90
46562;DHT22;32289;42.688;23.330;2024-01-11T02:16:51;-6.60;99.90
46562;DHT22;32289;42.688;23.330;2024-01-11T02:20:32;-6.70;99.90
46562;DHT22;32289;42.688;23.330;2024-01-11T02:24:13;-6.70;99.90
46562;DHT22;32289;42.688;23.330;2024-01-11T02:27:54;-6.60;99.90
46562;DHT22;32289;42.688;23.330;2024-01-11T02:31:37;-6.80;99.90
46562;DHT22;32289;42.688;23.330;2024-01-11T02:35:21;-6.30;99.90
46562;DHT22;32289;42.688;23.330;2024-01-11T02:39:02;-6.20;99.90
46562;DHT22;32289;42.688;23.330;2024-01-11T02:42:42;-6.50;99.90
46562;DHT22;32289;42.688;23.330;2024-01-11T02:46:23;-6.60;99.90
46562;DHT22;32289;42.688;23.330;2024-01-11T02:50:08;-6.70;99.90
46562;DHT22;32289;42.688;23.330;2024-01-11T02:53:48;-6.80;99.90
46562;DHT22;32289;42.688;23.330;2024-01-11T02:57:29;-6.80;99.90
46562;DHT22;32289;42.688;23.330;2024-01-11T03:01:10;-6.80;99.90
46562;DHT22;32289;42.688;23.330;2024-01-11T03:04:51;-6.90;99.90
46562;DHT22;32289;42.688;23.330;2024-01-11T03:08:35;-6.70;99.90
46562;DHT22;32289;42.688;23.330;2024-01-11T03:12:15;-6.90;99.90
46562;DHT22;32289;42.688;23.330;2024-01-11T03:15:56;-6.70;99.90
46562;DHT22;32289;42.688;23.330;2024-01-11T03:19:40;-6.70;99.90
46562;DHT22;32289;42.688;23.330;2024-01-11T03:23:24;-6.60;99.90
46562;DHT22;32289;42.688;23.330;2024-01-11T03:27:07;-6.60;99.90
46562;DHT22;32289;42.688;23.330;2024-01-11T03:30:49;-6.60;99.90
46562;DHT22;32289;42.688;23.330;2024-01-11T03:34:30;-6.60;99.90
46562;DHT22;32289;42.688;23.330;2024-01-11T03:38:11;-6.70;99.90
46562;DHT22;32289;42.688;23.330;2024-01-11T03:41:52;-6.80;99.90
46562;DHT22;32289;42.688;23.330;2024-01-11T03:45:36;-6.80;99.90
46562;DHT22;32289;42.688;23.330;2024-01-11T03:49:22;-6.70;99.90
46562;DHT22;32289;42.688;23.330;2024-01-11T03:53:05;-6.80;99.90
46562;DHT22;32289;42.688;23.330;2024-01-11T03:56:48;-6.70;99.90
46562;DHT22;32289;42.688;23.330;2024-01-11T04:00:33;-6.70;99.90
46562;DHT22;32289;42.688;23.330;2024-01-11T04:04:14;-6.70;99.90
46562;DHT22;32289;42.688;23.330;2024-01-11T04:07:55;-6.70;99.90
46562;DHT22;32289;42.688;23.330;2024-01-11T04:11:36;-6.60;99.90
46562;DHT22;32289;42.688;23.330;2024-01-11T04:15:17;-6.60;99.90
46562;DHT22;32289;42.688;23.330;2024-01-11T04:18:57;-6.70;99.90
46562;DHT22;32289;42.688;23.330;2024-01-11T04:22:38;-6.90;99.90
46562;DHT22;32289;42.688;23.330;2024-01-11T04:26:19;-7.00;99.90
46562;DHT22;32289;42.688;23.330;2024-01-11T04:30:00;-6.90;99.90
46562;DHT22;32289;42.688;23.330;2024-01-11T04:33:41;-7.10;99.90
46562;DHT22;32289;42.688;23.330;2024-01-11T04:37:22;-7.00;99.90
46562;DHT22;32289;42.688;23.330;2024-01-11T04:41:10;-7.00;99.90
46562;DHT22;32289;42.688;23.330;2024-01-11T04:44:51;-6.80;99.90
46562;DHT22;32289;42.688;23.330;2024-01-11T04:48:32;-6.80;99.90
46562;DHT22;32289;42.688;23.330;2024-01-11T04:52:12;-6.80;99.90
46562;DHT22;32289;42.688;23.330;2024-01-11T04:55:53;-6.70;99.90
46562;DHT22;32289;42.688;23.330;2024-01-11T04:59:34;-6.80;99.90
46562;DHT22;32289;42.688;23.330;2024-01-11T05:03:20;-6.80;99.90
46562;DHT22;32289;42.688;23.330;2024-01-11T05:07:05;-6.60;99.90
46562;DHT22;32289;42.688;23.330;2024-01-11T05:10:49;-6.50;99.90
46562;DHT22;32289;42.688;23.330;2024-01-11T05:14:30;-6.70;99.90
46562;DHT22;32289;42.688;23.330;2024-01-11T05:18:11;-6.80;99.90
46562;DHT22;32289;42.688;23.330;2024-01-11T05:21:52;-6.80;99.90
46562;DHT22;32289;42.688;23.330;2024-01-11T05:25:33;-6.80;99.90
46562;DHT22;32289;42.688;23.330;2024-01-11T05:29:16;-6.90;99.90
46562;DHT22;32289;42.688;23.330;2024-01-11T05:33:00;-6.80;99.90
46562;DHT22;32289;42.688;23.330;2024-01-11T05:36:41;-6.80;99.90
46562;DHT22;32289;42.688;23.330;2024-01-11T05:40:22;-6.90;99.90
46562;DHT22;32289;42.688;23.330;2024-01-11T05:44:02;-6.80;99.90
46562;DHT22;32289;42.688;23.330;2024-01-11T05:47:44;-6.70;99.90
46562;DHT22;32289;42.688;23.330;2024-01-11T05:51:25;-6.80;99.90
46562;DHT22;32289;42.688;23.330;2024-01-11T05:55:08;-6.80;99.90
46562;DHT22;32289;42.688;23.330;2024-01-11T05:58:52;-6.80;99.90
46562;DHT22;32289;42.688;23.330;2024-01-11T06:02:33;-6.90;99.90
46562;DHT22;32289;42.688;23.330;2024-01-11T06:06:16;-6.90;99.90
46562;DHT22;32289;42.688;23.330;2024-01-11T06:09:59;-7.00;99.90
46562;DHT22;32289;42.688;23.330;2024-01-11T06:13:41;-7.00;99.90
46562;DHT22;32289;42.688;23.330;2024-01-11T06:17:22;-7.10;99.90
46562;DHT22;32289;42.688;23.330;2024-01-11T06:21:03;-7.20;99.90
46562;DHT22;32289;42.688;23.330;2024-01-11T06:24:44;-7.10;99.90
46562;DHT22;32289;42.688;23.330;2024-01-11T06:28:24;-7.10;99.90
46562;DHT22;32289;42.688;23.330;2024-01-11T06:32:05;-7.00;99.90
46562;DHT22;32289;42.688;23.330;2024-01-11T06:35:46;-7.00;99.90
46562;DHT22;32289;42.688;23.330;2024-01-11T06:39:27;-7.20;99.90
46562;DHT22;32289;42.688;23.330;2024-01-11T06:43:08;-7.00;99.90
46562;DHT22;32289;42.688;23.330;2024-01-11T06:46:48;-6.70;99.90
46562;DHT22;32289;42.688;23.330;2024-01-11T06:50:29;-6.80;99.90
46562;DHT22;32289;42.688;23.330;2024-01-11T06:54:10;-6.70;99.90
46562;DHT22;32289;42.688;23.330;2024-01-11T06:57:50;-6.70;99.90
46562;DHT22;32289;42.688;23.330;2024-01-11T07:01:31;-6.60;99.90
46562;DHT22;32289;42.688;23.330;2024-01-11T07:05:12;-6.70;99.90
46562;DHT22;32289;42.688;23.330;2024-01-11T07:08:53;-6.50;99.90
46562;DHT22;32289;42.688;23.330;2024-01-11T07:12:33;-6.30;99.90
46562;DHT22;32289;42.688;23.330;2024-01-11T07:16:14;-6.30;99.90
46562;DHT22;32289;42.688;23.330;2024-01-11T07:19:54;-6.10;99.90
46562;DHT22;32289;42.688;23.330;2024-01-11T07:23:35;-6.30;99.90
46562;DHT22;32289;42.688;23.330;2024-01-11T07:27:16;-6.00;99.90
46562;DHT22;32289;42.688;23.330;2024-01-11T07:30:58;-6.10;99.90
46562;DHT22;32289;42.688;23.330;2024-01-11T07:34:38;-6.20;99.90
46562;DHT22;32289;42.688;23.330;2024-01-11T07:38:19;-5.90;99.90
46562;DHT22;32289;42.688;23.330;2024-01-11T07:42:00;-6.10;99.90
46562;DHT22;32289;42.688;23.330;2024-01-11T07:45:40;-5.80;99.90
46562;DHT22;32289;42.688;23.330;2024-01-11T07:49:21;-5.70;99.90
46562;DHT22;32289;42.688;23.330;2024-01-11T07:53:02;-5.80;99.90
46562;DHT22;32289;42.688;23.330;2024-01-11T07:56:43;-5.80;99.90
46562;DHT22;32289;42.688;23.330;2024-01-11T08:00:23;-5.70;99.90
46562;DHT22;32289;42.688;23.330;2024-01-11T08:04:04;-5.60;99.90
46562;DHT22;32289;42.688;23.330;2024-01-11T08:07:45;-5.40;99.90
46562;DHT22;32289;42.688;23.330;2024-01-11T08:11:25;-5.20;99.90
46562;DHT22;32289;42.688;23.330;2024-01-11T08:15:06;-5.30;99.90
46562;DHT22;32289;42.688;23.330;2024-01-11T08:18:47;-5.30;99.90
46562;DHT22;32289;42.688;23.330;2024-01-11T08:22:29;-5.30;99.90
46562;DHT22;32289;42.688;23.330;2024-01-11T08:26:14;-5.20;99.90
46562;DHT22;32289;42.688;23.330;2024-01-11T08:29:55;-4.90;99.90
46562;DHT22;32289;42.688;23.330;2024-01-11T08:33:36;-4.70;99.90
46562;DHT22;32289;42.688;23.330;2024-01-11T08:37:17;-4.70;99.90
46562;DHT22;32289;42.688;23.330;2024-01-11T08:40:58;-4.40;99.90
46562;DHT22;32289;42.688;23.330;2024-01-11T08:44:43;-4.50;99.90
46562;DHT22;32289;42.688;23.330;2024-01-11T08:48:25;-4.30;99.90
46562;DHT22;32289;42.688;23.330;2024-01-11T08:52:07;-4.00;99.90
46562;DHT22;32289;42.688;23.330;2024-01-11T08:55:48;-0.60;95.80
46562;DHT22;32289;42.688;23.330;2024-01-11T08:59:29;2.80;71.70
46562;DHT22;32289;42.688;23.330;2024-01-11T09:03:10;2.50;66.60
46562;DHT22;32289;42.688;23.330;2024-01-11T09:06:52;3.90;63.30
46562;DHT22;32289;42.688;23.330;2024-01-11T09:10:33;3.30;61.70
46562;DHT22;32289;42.688;23.330;2024-01-11T09:14:14;3.00;61.60
46562;DHT22;32289;42.688;23.330;2024-01-11T09:17:55;2.50;61.10
46562;DHT22;32289;42.688;23.330;2024-01-11T09:21:35;4.30;60.00
46562;DHT22;32289;42.688;23.330;2024-01-11T09:25:16;4.10;58.10
46562;DHT22;32289;42.688;23.330;2024-01-11T09:28:57;2.80;60.10
46562;DHT22;32289;42.688;23.330;2024-01-11T09:32:38;2.90;58.40
46562;DHT22;32289;42.688;23.330;2024-01-11T09:36:18;2.20;60.00
46562;DHT22;32289;42.688;23.330;2024-01-11T09:39:59;2.00;62.20
46562;DHT22;32289;42.688;23.330;2024-01-11T09:43:45;1.30;62.80
46562;DHT22;32289;42.688;23.330;2024-01-11T09:47:28;2.90;62.50
46562;DHT22;32289;42.688;23.330;2024-01-11T09:51:10;3.60;59.40
46562;DHT22;32289;42.688;23.330;2024-01-11T09:54:53;3.60;59.40
46562;DHT22;32289;42.688;23.330;2024-01-11T09:58:37;4.70;58.60
46562;DHT22;32289;42.688;23.330;2024-01-11T10:02:25;5.20;57.00
46562;DHT22;32289;42.688;23.330;2024-01-11T10:06:07;5.60;56.50
46562;DHT22;32289;42.688;23.330;2024-01-11T10:09:50;4.10;56.70
46562;DHT22;32289;42.688;23.330;2024-01-11T10:13:31;3.00;58.90
46562;DHT22;32289;42.688;23.330;2024-01-11T10:17:13;2.70;61.10
46562;DHT22;32289;42.688;23.330;2024-01-11T10:20:53;3.00;60.80
46562;DHT22;32289;42.688;23.330;2024-01-11T10:24:34;3.10;60.50
46562;DHT22;32289;42.688;23.330;2024-01-11T10:28:15;4.10;61.20
46562;DHT22;32289;42.688;23.330;2024-01-11T10:31:58;3.50;62.00
46562;DHT22;32289;42.688;23.330;2024-01-11T10:35:39;3.50;62.70
46562;DHT22;32289;42.688;23.330;2024-01-11T10:39:24;3.80;61.00
46562;DHT22;32289;42.688;23.330;2024-01-11T10:43:09;3.60;61.70
46562;DHT22;32289;42.688;23.330;2024-01-11T10:46:56;4.00;61.00
46562;DHT22;32289;42.688;23.330;2024-01-11T10:50:41;3.10;62.30
46562;DHT22;32289;42.688;23.330;2024-01-11T10:54:22;4.30;60.40
46562;DHT22;32289;42.688;23.330;2024-01-11T10:58:04;3.70;60.50
46562;DHT22;32289;42.688;23.330;2024-01-11T11:01:47;3.10;61.30
46562;DHT22;32289;42.688;23.330;2024-01-11T11:05:28;2.90;61.90
46562;DHT22;32289;42.688;23.330;2024-01-11T11:09:14;2.60;63.10
46562;DHT22;32289;42.688;23.330;2024-01-11T11:12:55;2.40;64.30
46562;DHT22;32289;42.688;23.330;2024-01-11T11:16:40;3.00;62.50
46562;DHT22;32289;42.688;23.330;2024-01-11T11:20:20;2.30;64.00
46562;DHT22;32289;42.688;23.330;2024-01-11T11:24:01;2.00;65.10
46562;DHT22;32289;42.688;23.330;2024-01-11T11:27:42;2.00;66.90
46562;DHT22;32289;42.688;23.330;2024-01-11T11:31:37;2.70;66.90
46562;DHT22;32289;42.688;23.330;2024-01-11T11:35:18;3.70;62.00
46562;DHT22;32289;42.688;23.330;2024-01-11T11:39:00;3.10;62.30
46562;DHT22;32289;42.688;23.330;2024-01-11T11:42:41;2.60;64.30
46562;DHT22;32289;42.688;23.330;2024-01-11T11:46:23;3.10;65.30
46562;DHT22;32289;42.688;23.330;2024-01-11T11:53:49;3.20;65.00
46562;DHT22;32289;42.688;23.330;2024-01-11T11:57:30;4.20;61.00
46562;DHT22;32289;42.688;23.330;2024-01-11T12:01:11;3.00;63.50
46562;DHT22;32289;42.688;23.330;2024-01-11T12:04:53;2.50;66.90
46562;DHT22;32289;42.688;23.330;2024-01-11T12:08:34;3.10;66.00
46562;DHT22;32289;42.688;23.330;2024-01-11T12:12:16;3.50;64.30
46562;DHT22;32289;42.688;23.330;2024-01-11T12:15:58;3.90;62.60
46562;DHT22;32289;42.688;23.330;2024-01-11T12:19:39;4.20;62.80
46562;DHT22;32289;42.688;23.330;2024-01-11T12:23:19;3.80;64.20
46562;DHT22;32289;42.688;23.330;2024-01-11T12:27:01;4.40;62.20
46562;DHT22;32289;42.688;23.330;2024-01-11T12:30:41;4.10;63.40
46562;DHT22;32289;42.688;23.330;2024-01-11T12:34:23;4.20;65.70
46562;DHT22;32289;42.688;23.330;2024-01-11T12:38:06;3.50;66.50
46562;DHT22;32289;42.688;23.330;2024-01-11T12:41:48;3.90;68.10
46562;DHT22;32289;42.688;23.330;2024-01-11T12:45:29;4.60;67.10
46562;DHT22;32289;42.688;23.330;2024-01-11T12:49:12;4.70;66.50
46562;DHT22;32289;42.688;23.330;2024-01-11T12:53:07;3.80;69.10
46562;DHT22;32289;42.688;23.330;2024-01-11T12:56:48;3.50;71.10
46562;DHT22;32289;42.688;23.330;2024-01-11T13:00:30;3.60;70.20
46562;DHT22;32289;42.688;23.330;2024-01-11T13:04:11;3.90;71.70
46562;DHT22;32289;42.688;23.330;2024-01-11T13:07:52;4.20;69.90
46562;DHT22;32289;42.688;23.330;2024-01-11T13:11:33;3.70;70.80
46562;DHT22;32289;42.688;23.330;2024-01-11T13:15:14;3.50;71.60
46562;DHT22;32289;42.688;23.330;2024-01-11T13:18:54;4.10;71.40
46562;DHT22;32289;42.688;23.330;2024-01-11T13:22:35;3.70;70.60
46562;DHT22;32289;42.688;23.330;2024-01-11T13:26:15;3.80;72.20
46562;DHT22;32289;42.688;23.330;2024-01-11T13:29:56;3.50;73.20
46562;DHT22;32289;42.688;23.330;2024-01-11T13:33:38;3.40;73.30
46562;DHT22;32289;42.688;23.330;2024-01-11T13:37:20;3.60;72.80
46562;DHT22;32289;42.688;23.330;2024-01-11T13:41:00;3.00;73.10
46562;DHT22;32289;42.688;23.330;2024-01-11T13:44:41;3.20;75.00
46562;DHT22;32289;42.688;23.330;2024-01-11T13:48:22;2.60;75.70
46562;DHT22;32289;42.688;23.330;2024-01-11T13:52:03;2.60;77.70
46562;DHT22;32289;42.688;23.330;2024-01-11T13:55:45;2.30;79.50
46562;DHT22;32289;42.688;23.330;2024-01-11T13:59:28;2.60;80.10
46562;DHT22;32289;42.688;23.330;2024-01-11T14:03:09;2.40;79.70
46562;DHT22;32289;42.688;23.330;2024-01-11T14:06:52;2.30;79.30
46562;DHT22;32289;42.688;23.330;2024-01-11T14:10:33;2.60;79.50
46562;DHT22;32289;42.688;23.330;2024-01-11T14:14:14;2.40;79.60
46562;DHT22;32289;42.688;23.330;2024-01-11T14:17:55;2.20;80.20
46562;DHT22;32289;42.688;23.330;2024-01-11T14:21:36;2.10;83.00
46562;DHT22;32289;42.688;23.330;2024-01-11T14:25:18;2.20;84.10
46562;DHT22;32289;42.688;23.330;2024-01-11T14:28:59;2.10;84.20
46562;DHT22;32289;42.688;23.330;2024-01-11T14:32:41;2.10;85.30
46562;DHT22;32289;42.688;23.330;2024-01-11T14:36:22;1.80;86.50
46562;DHT22;32289;42.688;23.330;2024-01-11T14:40:07;1.80;88.10
46562;DHT22;32289;42.688;23.330;2024-01-11T14:43:50;1.80;87.70
46562;DHT22;32289;42.688;23.330;2024-01-11T14:47:31;1.70;89.50
46562;DHT22;32289;42.688;23.330;2024-01-11T14:51:12;1.60;89.00
46562;DHT22;32289;42.688;23.330;2024-01-11T14:54:53;1.60;90.00
46562;DHT22;32289;42.688;23.330;2024-01-11T14:58:33;1.40;90.80
46562;DHT22;32289;42.688;23.330;2024-01-11T15:02:14;1.40;91.60
46562;DHT22;32289;42.688;23.330;2024-01-11T15:05:55;1.30;92.40
46562;DHT22;32289;42.688;23.330;2024-01-11T15:09:36;1.30;92.60
46562;DHT22;32289;42.688;23.330;2024-01-11T15:13:17;1.20;93.30
46562;DHT22;32289;42.688;23.330;2024-01-11T15:16:58;1.30;94.10
46562;DHT22;32289;42.688;23.330;2024-01-11T15:20:42;1.20;93.50
46562;DHT22;32289;42.688;23.330;2024-01-11T15:24:25;1.00;94.20
46562;DHT22;32289;42.688;23.330;2024-01-11T15:28:08;1.00;94.80
46562;DHT22;32289;42.688;23.330;2024-01-11T15:31:49;1.00;94.60
46562;DHT22;32289;42.688;23.330;2024-01-11T15:35:30;0.90;94.50
46562;DHT22;32289;42.688;23.330;2024-01-11T15:39:11;0.90;95.30
46562;DHT22;32289;42.688;23.330;2024-01-11T15:42:52;0.90;95.10
46562;DHT22;32289;42.688;23.330;2024-01-11T15:46:33;0.80;95.40
46562;DHT22;32289;42.688;23.330;2024-01-11T15:50:13;0.80;96.00
46562;DHT22;32289;42.688;23.330;2024-01-11T15:53:56;0.70;96.80
46562;DHT22;32289;42.688;23.330;2024-01-11T15:57:37;0.50;97.60
46562;DHT22;32289;42.688;23.330;2024-01-11T16:01:18;0.40;97.00
46562;DHT22;32289;42.688;23.330;2024-01-11T16:05:00;0.30;97.20
46562;DHT22;32289;42.688;23.330;2024-01-11T16:08:40;0.30;97.70
46562;DHT22;32289;42.688;23.330;2024-01-11T16:12:21;0.20;98.90
46562;DHT22;32289;42.688;23.330;2024-01-11T16:16:06;0.10;99.30
46562;DHT22;32289;42.688;23.330;2024-01-11T16:19:47;0.10;99.30
46562;DHT22;32289;42.688;23.330;2024-01-11T16:23:34;0.10;99.10
46562;DHT22;32289;42.688;23.330;2024-01-11T16:27:15;0.00;99.40
46562;DHT22;32289;42.688;23.330;2024-01-11T16:30:55;-0.10;99.90
46562;DHT22;32289;42.688;23.330;2024-01-11T16:34:37;-0.10;99.90
46562;DHT22;32289;42.688;23.330;2024-01-11T16:38:19;-0.10;99.30
46562;DHT22;32289;42.688;23.330;2024-01-11T16:41:59;-0.20;99.50
46562;DHT22;32289;42.688;23.330;2024-01-11T16:45:40;-0.30;99.20
46562;DHT22;32289;42.688;23.330;2024-01-11T16:49:21;-0.30;99.20
46562;DHT22;32289;42.688;23.330;2024-01-11T16:53:03;-0.40;99.60
46562;DHT22;32289;42.688;23.330;2024-01-11T16:56:43;-0.50;99.10
46562;DHT22;32289;42.688;23.330;2024-01-11T17:00:24;-0.20;99.90
46562;DHT22;32289;42.688;23.330;2024-01-11T17:04:05;-0.30;99.90
46562;DHT22;32289;42.688;23.330;2024-01-11T17:07:46;-0.40;99.70
46562;DHT22;32289;42.688;23.330;2024-01-11T17:11:27;-0.50;99.90
46562;DHT22;32289;42.688;23.330;2024-01-11T17:15:08;-0.60;99.90
46562;DHT22;32289;42.688;23.330;2024-01-11T17:18:49;-0.50;99.90
46562;DHT22;32289;42.688;23.330;2024-01-11T17:22:29;-0.70;99.90
46562;DHT22;32289;42.688;23.330;2024-01-11T17:26:10;-0.60;99.90
46562;DHT22;32289;42.688;23.330;2024-01-11T17:29:51;-0.70;99.90
46562;DHT22;32289;42.688;23.330;2024-01-11T17:33:32;-0.70;99.90
46562;DHT22;32289;42.688;23.330;2024-01-11T17:37:12;-0.70;99.90
46562;DHT22;32289;42.688;23.330;2024-01-11T17:40:54;-0.70;99.90
46562;DHT22;32289;42.688;23.330;2024-01-11T17:44:35;-0.70;99.90
46562;DHT22;32289;42.688;23.330;2024-01-11T17:48:17;-0.80;99.90
46562;DHT22;32289;42.688;23.330;2024-01-11T17:51:58;-0.90;99.90
46562;DHT22;32289;42.688;23.330;2024-01-11T17:55:39;-0.90;99.90
46562;DHT22;32289;42.688;23.330;2024-01-11T17:59:19;-1.00;99.90
46562;DHT22;32289;42.688;23.330;2024-01-11T18:03:00;-1.00;99.90
46562;DHT22;32289;42.688;23.330;2024-01-11T18:06:44;-1.10;99.90
46562;DHT22;32289;42.688;23.330;2024-01-11T18:10:25;-1.20;99.90
46562;DHT22;32289;42.688;23.330;2024-01-11T18:14:06;-1.20;99.90
46562;DHT22;32289;42.688;23.330;2024-01-11T18:17:47;-1.30;99.90
46562;DHT22;32289;42.688;23.330;2024-01-11T18:21:27;-1.30;99.90
46562;DHT22;32289;42.688;23.330;2024-01-11T18:25:10;-1.40;99.90
46562;DHT22;32289;42.688;23.330;2024-01-11T18:28:53;-1.50;99.90
46562;DHT22;32289;42.688;23.330;2024-01-11T18:32:35;-1.50;99.90
46562;DHT22;32289;42.688;23.330;2024-01-11T18:36:16;-1.50;99.90
46562;DHT22;32289;42.688;23.330;2024-01-11T18:39:58;-1.60;99.90
46562;DHT22;32289;42.688;23.330;2024-01-11T18:43:39;-1.70;99.90
46562;DHT22;32289;42.688;23.330;2024-01-11T18:47:19;-1.70;99.90
46562;DHT22;32289;42.688;23.330;2024-01-11T18:51:00;-1.80;99.90
46562;DHT22;32289;42.688;23.330;2024-01-11T18:54:41;-1.80;99.90
46562;DHT22;32289;42.688;23.330;2024-01-11T18:58:22;-1.80;99.90
46562;DHT22;32289;42.688;23.330;2024-01-11T19:02:03;-1.90;99.90
46562;DHT22;32289;42.688;23.330;2024-01-11T19:05:44;-2.00;99.60
46562;DHT22;32289;42.688;23.330;2024-01-11T19:09:25;-2.00;99.90
46562;DHT22;32289;42.688;23.330;2024-01-11T19:13:06;-2.10;99.90
46562;DHT22;32289;42.688;23.330;2024-01-11T19:16:47;-2.00;99.90
46562;DHT22;32289;42.688;23.330;2024-01-11T19:20:28;-2.20;99.90
46562;DHT22;32289;42.688;23.330;2024-01-11T19:24:08;-2.10;99.90
46562;DHT22;32289;42.688;23.330;2024-01-11T19:27:50;-2.20;99.90
46562;DHT22;32289;42.688;23.330;2024-01-11T19:31:33;-2.20;99.90
46562;DHT22;32289;42.688;23.330;2024-01-11T19:35:15;-2.20;99.90
46562;DHT22;32289;42.688;23.330;2024-01-11T19:38:55;-2.20;98.80
46562;DHT22;32289;42.688;23.330;2024-01-11T19:42:41;-2.20;98.60
46562;DHT22;32289;42.688;23.330;2024-01-11T19:46:22;-2.20;96.90
46562;DHT22;32289;42.688;23.330;2024-01-11T19:50:04;-2.30;96.10
46562;DHT22;32289;42.688;23.330;2024-01-11T19:53:45;-2.20;96.80
46562;DHT22;32289;42.688;23.330;2024-01-11T19:57:26;-2.10;96.20
46562;DHT22;32289;42.688;23.330;2024-01-11T20:01:07;-2.20;96.10
46562;DHT22;32289;42.688;23.330;2024-01-11T20:04:47;-2.20;95.30
46562;DHT22;32289;42.688;23.330;2024-01-11T20:08:31;-2.30;96.20
46562;DHT22;32289;42.688;23.330;2024-01-11T20:12:12;-2.30;95.90
46562;DHT22;32289;42.688;23.330;2024-01-11T20:15:54;-2.40;95.60
46562;DHT22;32289;42.688;23.330;2024-01-11T20:19:34;-2.50;96.40
46562;DHT22;32289;42.688;23.330;2024-01-11T20:23:15;-2.50;96.50
46562;DHT22;32289;42.688;23.330;2024-01-11T20:26:56;-2.30;96.40
46562;DHT22;32289;42.688;23.330;2024-01-11T20:30:37;-2.40;96.90
46562;DHT22;32289;42.688;23.330;2024-01-11T20:34:17;-2.50;96.30
46562;DHT22;32289;42.688;23.330;2024-01-11T20:37:58;-2.60;97.80
46562;DHT22;32289;42.688;23.330;2024-01-11T20:41:39;-2.80;98.30
46562;DHT22;32289;42.688;23.330;2024-01-11T20:45:23;-2.80;99.20
46562;DHT22;32289;42.688;23.330;2024-01-11T20:49:04;-2.90;99.00
46562;DHT22;32289;42.688;23.330;2024-01-11T20:52:44;-3.00;99.70
46562;DHT22;32289;42.688;23.330;2024-01-11T20:56:25;-2.90;99.90
46562;DHT22;32289;42.688;23.330;2024-01-11T21:00:07;-3.00;98.60
46562;DHT22;32289;42.688;23.330;2024-01-11T21:03:49;-3.10;99.90
46562;DHT22;32289;42.688;23.330;2024-01-11T21:07:30;-3.10;99.70
46562;DHT22;32289;42.688;23.330;2024-01-11T21:11:10;-3.10;98.90
46562;DHT22;32289;42.688;23.330;2024-01-11T21:14:51;-3.10;98.90
46562;DHT22;32289;42.688;23.330;2024-01-11T21:18:32;-3.10;99.00
46562;DHT22;32289;42.688;23.330;2024-01-11T21:22:13;-3.20;99.40
46562;DHT22;32289;42.688;23.330;2024-01-11T21:25:54;-3.20;99.20
46562;DHT22;32289;42.688;23.330;2024-01-11T21:29:35;-3.30;99.20
46562;DHT22;32289;42.688;23.330;2024-01-11T21:33:16;-3.20;99.70
46562;DHT22;32289;42.688;23.330;2024-01-11T21:36:56;-3.20;99.90
46562;DHT22;32289;42.688;23.330;2024-01-11T21:40:37;-3.40;99.80
46562;DHT22;32289;42.688;23.330;2024-01-11T21:44:20;-3.40;99.90
46562;DHT22;32289;42.688;23.330;2024-01-11T21:48:00;-3.40;99.90
46562;DHT22;32289;42.688;23.330;2024-01-11T21:51:41;-3.40;99.90
46562;DHT22;32289;42.688;23.330;2024-01-11T21:55:22;-3.50;99.90
46562;DHT22;32289;42.688;23.330;2024-01-11T21:59:04;-3.50;99.90
46562;DHT22;32289;42.688;23.330;2024-01-11T22:02:46;-3.40;99.90
46562;DHT22;32289;42.688;23.330;2024-01-11T22:06:27;-3.40;99.90
46562;DHT22;32289;42.688;23.330;2024-01-11T22:10:08;-3.60;99.90
46562;DHT22;32289;42.688;23.330;2024-01-11T22:13:49;-3.60;99.90
46562;DHT22;32289;42.688;23.330;2024-01-11T22:17:30;-3.60;99.90
46562;DHT22;32289;42.688;23.330;2024-01-11T22:21:10;-3.60;99.90
46562;DHT22;32289;42.688;23.330;2024-01-11T22:24:54;-3.70;99.90
46562;DHT22;32289;42.688;23.330;2024-01-11T22:28:35;-3.70;99.90
46562;DHT22;32289;42.688;23.330;2024-01-11T22:32:15;-3.70;99.90
46562;DHT22;32289;42.688;23.330;2024-01-11T22:35:56;-3.80;99.90
46562;DHT22;32289;42.688;23.330;2024-01-11T22:39:38;-3.80;99.90
46562;DHT22;32289;42.688;23.330;2024-01-11T22:43:18;-3.80;99.90
46562;DHT22;32289;42.688;23.330;2024-01-11T22:46:59;-3.80;99.90
46562;DHT22;32289;42.688;23.330;2024-01-11T22:50:40;-3.80;99.90
46562;DHT22;32289;42.688;23.330;2024-01-11T22:54:21;-3.80;99.90
46562;DHT22;32289;42.688;23.330;2024-01-11T22:58:01;-3.80;99.90
46562;DHT22;32289;42.688;23.330;2024-01-11T23:01:42;-3.90;99.90
46562;DHT22;32289;42.688;23.330;2024-01-11T23:05:23;-3.90;99.90